sensor_id;sensor_type;location;lat;lon;timestamp;P1;durP1;ratioP1;P2;durP2;ratioP2
18435;SDS011;9346;52.006;4.720;2023-03-08T00:00:19;5.47;;;2.50;;
18435;SDS011;9346;52.006;4.720;2023-03-08T00:02:46;3.03;;;2.73;;
18435;SDS011;9346;52.006;4.720;2023-03-08T00:05:13;5.00;;;2.53;;
18435;SDS011;9346;52.006;4.720;2023-03-08T00:07:44;11.03;;;2.43;;
18435;SDS011;9346;52.006;4.720;2023-03-08T00:10:10;5.00;;;1.93;;
18435;SDS011;9346;52.006;4.720;2023-03-08T00:12:38;6.00;;;2.30;;
18435;SDS011;9346;52.006;4.720;2023-03-08T00:15:05;3.17;;;1.97;;
18435;SDS011;9346;52.006;4.720;2023-03-08T00:17:34;3.97;;;2.23;;
18435;SDS011;9346;52.006;4.720;2023-03-08T00:20:02;4.23;;;2.87;;
18435;SDS011;9346;52.006;4.720;2023-03-08T00:22:33;7.47;;;3.63;;
18435;SDS011;9346;52.006;4.720;2023-03-08T00:25:03;6.00;;;3.63;;
18435;SDS011;9346;52.006;4.720;2023-03-08T00:27:30;5.33;;;2.97;;
18435;SDS011;9346;52.006;4.720;2023-03-08T00:29:57;2.67;;;2.03;;
18435;SDS011;9346;52.006;4.720;2023-03-08T00:32:24;3.40;;;1.47;;
18435;SDS011;9346;52.006;4.720;2023-03-08T00:34:51;5.37;;;1.60;;
18435;SDS011;9346;52.006;4.720;2023-03-08T00:37:18;2.70;;;1.50;;
18435;SDS011;9346;52.006;4.720;2023-03-08T00:39:49;4.90;;;1.03;;
18435;SDS011;9346;52.006;4.720;2023-03-08T00:42:18;0.30;;;0.30;;
18435;SDS011;9346;52.006;4.720;2023-03-08T00:44:45;13.43;;;0.77;;
18435;SDS011;9346;52.006;4.720;2023-03-08T00:47:12;1.20;;;0.27;;
18435;SDS011;9346;52.006;4.720;2023-03-08T00:49:39;1.23;;;1.13;;
18435;SDS011;9346;52.006;4.720;2023-03-08T00:52:06;3.47;;;1.10;;
18435;SDS011;9346;52.006;4.720;2023-03-08T00:54:34;1.80;;;1.60;;
18435;SDS011;9346;52.006;4.720;2023-03-08T00:57:01;2.70;;;1.70;;
18435;SDS011;9346;52.006;4.720;2023-03-08T00:59:30;1.87;;;1.27;;
18435;SDS011;9346;52.006;4.720;2023-03-08T01:01:57;1.87;;;1.60;;
18435;SDS011;9346;52.006;4.720;2023-03-08T01:04:25;6.50;;;1.60;;
18435;SDS011;9346;52.006;4.720;2023-03-08T01:06:52;7.60;;;1.97;;
18435;SDS011;9346;52.006;4.720;2023-03-08T01:09:19;4.33;;;1.93;;
18435;SDS011;9346;52.006;4.720;2023-03-08T01:11:46;4.20;;;1.93;;
18435;SDS011;9346;52.006;4.720;2023-03-08T01:14:13;3.83;;;1.93;;
18435;SDS011;9346;52.006;4.720;2023-03-08T01:16:41;1.93;;;1.73;;
18435;SDS011;9346;52.006;4.720;2023-03-08T01:19:09;1.60;;;1.30;;
18435;SDS011;9346;52.006;4.720;2023-03-08T01:21:37;3.13;;;1.90;;
18435;SDS011;9346;52.006;4.720;2023-03-08T01:24:04;2.10;;;1.40;;
18435;SDS011;9346;52.006;4.720;2023-03-08T01:26:31;2.30;;;1.83;;
18435;SDS011;9346;52.006;4.720;2023-03-08T01:28:58;2.80;;;1.67;;
18435;SDS011;9346;52.006;4.720;2023-03-08T01:31:26;1.93;;;1.40;;
18435;SDS011;9346;52.006;4.720;2023-03-08T01:33:55;5.63;;;2.07;;
18435;SDS011;9346;52.006;4.720;2023-03-08T01:36:23;2.07;;;1.80;;
18435;SDS011;9346;52.006;4.720;2023-03-08T01:38:51;8.83;;;2.33;;
18435;SDS011;9346;52.006;4.720;2023-03-08T01:41:19;3.30;;;2.13;;
18435;SDS011;9346;52.006;4.720;2023-03-08T01:43:48;6.60;;;2.30;;
18435;SDS011;9346;52.006;4.720;2023-03-08T01:46:16;3.23;;;2.37;;
18435;SDS011;9346;52.006;4.720;2023-03-08T01:48:53;2.43;;;2.13;;
18435;SDS011;9346;52.006;4.720;2023-03-08T01:51:28;5.27;;;2.13;;
18435;SDS011;9346;52.006;4.720;2023-03-08T01:53:59;3.87;;;2.47;;
18435;SDS011;9346;52.006;4.720;2023-03-08T01:56:30;2.17;;;1.40;;
18435;SDS011;9346;52.006;4.720;2023-03-08T01:58:58;7.87;;;2.23;;
18435;SDS011;9346;52.006;4.720;2023-03-08T02:01:26;3.30;;;2.03;;
18435;SDS011;9346;52.006;4.720;2023-03-08T02:03:53;3.20;;;2.00;;
18435;SDS011;9346;52.006;4.720;2023-03-08T02:06:21;2.13;;;1.83;;
18435;SDS011;9346;52.006;4.720;2023-03-08T02:08:48;4.07;;;2.27;;
18435;SDS011;9346;52.006;4.720;2023-03-08T02:11:16;2.97;;;2.13;;
18435;SDS011;9346;52.006;4.720;2023-03-08T02:13:46;4.77;;;2.47;;
18435;SDS011;9346;52.006;4.720;2023-03-08T02:16:15;3.30;;;2.43;;
18435;SDS011;9346;52.006;4.720;2023-03-08T02:18:49;2.30;;;1.53;;
18435;SDS011;9346;52.006;4.720;2023-03-08T02:21:17;10.03;;;2.20;;
18435;SDS011;9346;52.006;4.720;2023-03-08T02:23:46;3.00;;;2.20;;
18435;SDS011;9346;52.006;4.720;2023-03-08T02:26:13;3.60;;;2.30;;
18435;SDS011;9346;52.006;4.720;2023-03-08T02:28:40;3.60;;;2.10;;
18435;SDS011;9346;52.006;4.720;2023-03-08T02:31:08;6.50;;;3.27;;
18435;SDS011;9346;52.006;4.720;2023-03-08T02:33:35;7.80;;;2.90;;
18435;SDS011;9346;52.006;4.720;2023-03-08T02:36:02;4.73;;;2.97;;
18435;SDS011;9346;52.006;4.720;2023-03-08T02:38:31;6.77;;;3.23;;
18435;SDS011;9346;52.006;4.720;2023-03-08T02:41:00;5.70;;;4.07;;
18435;SDS011;9346;52.006;4.720;2023-03-08T02:43:27;5.93;;;2.63;;
18435;SDS011;9346;52.006;4.720;2023-03-08T02:45:54;3.47;;;2.37;;
18435;SDS011;9346;52.006;4.720;2023-03-08T02:48:21;5.10;;;2.80;;
18435;SDS011;9346;52.006;4.720;2023-03-08T02:50:48;5.53;;;3.77;;
18435;SDS011;9346;52.006;4.720;2023-03-08T02:53:15;4.00;;;2.87;;
18435;SDS011;9346;52.006;4.720;2023-03-08T02:55:42;3.37;;;3.07;;
18435;SDS011;9346;52.006;4.720;2023-03-08T02:58:10;4.80;;;3.30;;
18435;SDS011;9346;52.006;4.720;2023-03-08T03:00:37;3.93;;;2.83;;
18435;SDS011;9346;52.006;4.720;2023-03-08T03:03:05;5.33;;;3.57;;
18435;SDS011;9346;52.006;4.720;2023-03-08T03:05:32;3.73;;;3.07;;
18435;SDS011;9346;52.006;4.720;2023-03-08T03:07:59;5.07;;;3.70;;
18435;SDS011;9346;52.006;4.720;2023-03-08T03:10:26;3.40;;;2.83;;
18435;SDS011;9346;52.006;4.720;2023-03-08T03:12:53;5.50;;;3.10;;
18435;SDS011;9346;52.006;4.720;2023-03-08T03:15:21;5.87;;;2.93;;
18435;SDS011;9346;52.006;4.720;2023-03-08T03:17:49;5.53;;;3.60;;
18435;SDS011;9346;52.006;4.720;2023-03-08T03:20:16;12.70;;;3.83;;
18435;SDS011;9346;52.006;4.720;2023-03-08T03:22:43;6.83;;;4.33;;
18435;SDS011;9346;52.006;4.720;2023-03-08T03:25:11;6.63;;;3.57;;
18435;SDS011;9346;52.006;4.720;2023-03-08T03:27:38;5.33;;;4.40;;
18435;SDS011;9346;52.006;4.720;2023-03-08T03:30:06;6.27;;;3.47;;
18435;SDS011;9346;52.006;4.720;2023-03-08T03:32:36;9.03;;;5.40;;
18435;SDS011;9346;52.006;4.720;2023-03-08T03:35:03;4.90;;;3.63;;
18435;SDS011;9346;52.006;4.720;2023-03-08T03:37:32;8.27;;;5.33;;
18435;SDS011;9346;52.006;4.720;2023-03-08T03:39:59;6.77;;;5.03;;
18435;SDS011;9346;52.006;4.720;2023-03-08T03:42:26;6.37;;;4.67;;
18435;SDS011;9346;52.006;4.720;2023-03-08T03:44:53;7.73;;;4.43;;
18435;SDS011;9346;52.006;4.720;2023-03-08T03:47:20;8.97;;;5.33;;
18435;SDS011;9346;52.006;4.720;2023-03-08T03:49:49;11.10;;;6.03;;
18435;SDS011;9346;52.006;4.720;2023-03-08T03:52:16;9.30;;;5.03;;
18435;SDS011;9346;52.006;4.720;2023-03-08T03:54:43;10.70;;;6.70;;
18435;SDS011;9346;52.006;4.720;2023-03-08T03:57:10;9.77;;;6.60;;
18435;SDS011;9346;52.006;4.720;2023-03-08T03:59:37;10.03;;;6.10;;
18435;SDS011;9346;52.006;4.720;2023-03-08T04:02:03;14.67;;;6.57;;
18435;SDS011;9346;52.006;4.720;2023-03-08T04:04:30;7.83;;;6.07;;
18435;SDS011;9346;52.006;4.720;2023-03-08T04:06:59;14.43;;;7.57;;
18435;SDS011;9346;52.006;4.720;2023-03-08T04:09:26;8.47;;;5.63;;
18435;SDS011;9346;52.006;4.720;2023-03-08T04:11:53;19.37;;;6.27;;
18435;SDS011;9346;52.006;4.720;2023-03-08T04:14:20;16.83;;;7.87;;
18435;SDS011;9346;52.006;4.720;2023-03-08T04:16:47;11.93;;;5.73;;
18435;SDS011;9346;52.006;4.720;2023-03-08T04:19:14;15.53;;;7.03;;
18435;SDS011;9346;52.006;4.720;2023-03-08T04:21:41;16.83;;;8.07;;
18435;SDS011;9346;52.006;4.720;2023-03-08T04:24:10;15.80;;;9.20;;
18435;SDS011;9346;52.006;4.720;2023-03-08T04:26:36;13.87;;;8.33;;
18435;SDS011;9346;52.006;4.720;2023-03-08T04:29:04;15.97;;;8.27;;
18435;SDS011;9346;52.006;4.720;2023-03-08T04:31:31;25.80;;;9.83;;
18435;SDS011;9346;52.006;4.720;2023-03-08T04:34:00;18.60;;;8.63;;
18435;SDS011;9346;52.006;4.720;2023-03-08T04:36:28;20.03;;;10.23;;
18435;SDS011;9346;52.006;4.720;2023-03-08T04:38:55;17.23;;;8.90;;
18435;SDS011;9346;52.006;4.720;2023-03-08T04:41:24;17.07;;;9.37;;
18435;SDS011;9346;52.006;4.720;2023-03-08T04:43:51;26.87;;;9.40;;
18435;SDS011;9346;52.006;4.720;2023-03-08T04:46:20;16.83;;;9.30;;
18435;SDS011;9346;52.006;4.720;2023-03-08T04:48:48;22.20;;;11.73;;
18435;SDS011;9346;52.006;4.720;2023-03-08T04:51:17;19.37;;;8.73;;
18435;SDS011;9346;52.006;4.720;2023-03-08T04:53:44;21.20;;;9.90;;
18435;SDS011;9346;52.006;4.720;2023-03-08T04:56:12;18.53;;;10.50;;
18435;SDS011;9346;52.006;4.720;2023-03-08T04:58:43;19.57;;;11.20;;
18435;SDS011;9346;52.006;4.720;2023-03-08T05:01:11;21.93;;;10.80;;
18435;SDS011;9346;52.006;4.720;2023-03-08T05:03:39;25.13;;;11.97;;
18435;SDS011;9346;52.006;4.720;2023-03-08T05:06:07;22.83;;;11.47;;
18435;SDS011;9346;52.006;4.720;2023-03-08T05:08:35;28.33;;;12.80;;
18435;SDS011;9346;52.006;4.720;2023-03-08T05:11:02;24.30;;;11.70;;
18435;SDS011;9346;52.006;4.720;2023-03-08T05:13:30;27.23;;;13.27;;
18435;SDS011;9346;52.006;4.720;2023-03-08T05:16:01;21.50;;;10.43;;
18435;SDS011;9346;52.006;4.720;2023-03-08T05:18:29;24.37;;;11.77;;
18435;SDS011;9346;52.006;4.720;2023-03-08T05:20:56;27.40;;;12.60;;
18435;SDS011;9346;52.006;4.720;2023-03-08T05:23:25;24.07;;;12.40;;
18435;SDS011;9346;52.006;4.720;2023-03-08T05:25:52;27.50;;;14.20;;
18435;SDS011;9346;52.006;4.720;2023-03-08T05:28:20;31.10;;;12.93;;
18435;SDS011;9346;52.006;4.720;2023-03-08T05:30:48;41.93;;;12.73;;
18435;SDS011;9346;52.006;4.720;2023-03-08T05:33:17;33.70;;;14.03;;
18435;SDS011;9346;52.006;4.720;2023-03-08T05:35:51;25.43;;;13.67;;
18435;SDS011;9346;52.006;4.720;2023-03-08T05:38:19;26.47;;;13.00;;
18435;SDS011;9346;52.006;4.720;2023-03-08T05:40:47;25.83;;;13.13;;
18435;SDS011;9346;52.006;4.720;2023-03-08T05:43:14;25.70;;;11.67;;
18435;SDS011;9346;52.006;4.720;2023-03-08T05:45:41;28.43;;;15.63;;
18435;SDS011;9346;52.006;4.720;2023-03-08T05:48:08;30.07;;;13.00;;
18435;SDS011;9346;52.006;4.720;2023-03-08T05:50:37;34.70;;;13.37;;
18435;SDS011;9346;52.006;4.720;2023-03-08T05:53:04;28.57;;;13.63;;
18435;SDS011;9346;52.006;4.720;2023-03-08T05:55:30;38.10;;;15.40;;
18435;SDS011;9346;52.006;4.720;2023-03-08T05:57:57;27.53;;;13.00;;
18435;SDS011;9346;52.006;4.720;2023-03-08T06:00:25;30.40;;;14.83;;
18435;SDS011;9346;52.006;4.720;2023-03-08T06:02:52;36.47;;;16.03;;
18435;SDS011;9346;52.006;4.720;2023-03-08T06:05:22;35.57;;;16.20;;
18435;SDS011;9346;52.006;4.720;2023-03-08T06:07:51;31.57;;;14.97;;
18435;SDS011;9346;52.006;4.720;2023-03-08T06:10:18;30.77;;;15.37;;
18435;SDS011;9346;52.006;4.720;2023-03-08T06:12:45;31.53;;;16.17;;
18435;SDS011;9346;52.006;4.720;2023-03-08T06:15:12;29.67;;;14.13;;
18435;SDS011;9346;52.006;4.720;2023-03-08T06:17:39;31.93;;;16.07;;
18435;SDS011;9346;52.006;4.720;2023-03-08T06:20:07;25.57;;;15.67;;
18435;SDS011;9346;52.006;4.720;2023-03-08T06:22:35;37.17;;;16.23;;
18435;SDS011;9346;52.006;4.720;2023-03-08T06:25:04;25.73;;;15.30;;
18435;SDS011;9346;52.006;4.720;2023-03-08T06:27:32;36.33;;;15.67;;
18435;SDS011;9346;52.006;4.720;2023-03-08T06:29:59;25.70;;;13.93;;
18435;SDS011;9346;52.006;4.720;2023-03-08T06:32:26;29.13;;;15.53;;
18435;SDS011;9346;52.006;4.720;2023-03-08T06:34:52;40.73;;;16.07;;
18435;SDS011;9346;52.006;4.720;2023-03-08T06:37:19;32.17;;;14.67;;
18435;SDS011;9346;52.006;4.720;2023-03-08T06:39:46;35.10;;;15.60;;
18435;SDS011;9346;52.006;4.720;2023-03-08T06:42:14;38.60;;;17.70;;
18435;SDS011;9346;52.006;4.720;2023-03-08T06:44:41;56.37;;;17.33;;
18435;SDS011;9346;52.006;4.720;2023-03-08T06:47:09;34.17;;;16.43;;
18435;SDS011;9346;52.006;4.720;2023-03-08T06:49:36;35.47;;;15.50;;
18435;SDS011;9346;52.006;4.720;2023-03-08T06:52:03;43.53;;;16.07;;
18435;SDS011;9346;52.006;4.720;2023-03-08T06:54:30;41.30;;;16.97;;
18435;SDS011;9346;52.006;4.720;2023-03-08T06:56:57;45.00;;;16.43;;
18435;SDS011;9346;52.006;4.720;2023-03-08T06:59:26;30.33;;;16.00;;
18435;SDS011;9346;52.006;4.720;2023-03-08T07:01:53;32.70;;;16.53;;
18435;SDS011;9346;52.006;4.720;2023-03-08T07:04:20;33.57;;;16.50;;
18435;SDS011;9346;52.006;4.720;2023-03-08T07:06:47;34.47;;;15.60;;
18435;SDS011;9346;52.006;4.720;2023-03-08T07:09:14;41.43;;;17.77;;
18435;SDS011;9346;52.006;4.720;2023-03-08T07:11:41;49.57;;;19.17;;
18435;SDS011;9346;52.006;4.720;2023-03-08T07:14:08;41.17;;;17.83;;
18435;SDS011;9346;52.006;4.720;2023-03-08T07:16:36;51.20;;;18.00;;
18435;SDS011;9346;52.006;4.720;2023-03-08T07:19:03;38.17;;;18.17;;
18435;SDS011;9346;52.006;4.720;2023-03-08T07:21:30;50.17;;;18.23;;
18435;SDS011;9346;52.006;4.720;2023-03-08T07:23:57;35.87;;;15.73;;
18435;SDS011;9346;52.006;4.720;2023-03-08T07:26:23;46.00;;;20.30;;
18435;SDS011;9346;52.006;4.720;2023-03-08T07:28:50;36.00;;;18.27;;
18435;SDS011;9346;52.006;4.720;2023-03-08T07:31:17;35.57;;;17.57;;
18435;SDS011;9346;52.006;4.720;2023-03-08T07:33:46;47.17;;;17.63;;
18435;SDS011;9346;52.006;4.720;2023-03-08T07:36:13;43.83;;;17.87;;
18435;SDS011;9346;52.006;4.720;2023-03-08T07:38:40;40.23;;;17.63;;
18435;SDS011;9346;52.006;4.720;2023-03-08T07:41:07;37.00;;;17.70;;
18435;SDS011;9346;52.006;4.720;2023-03-08T07:43:34;46.33;;;16.53;;
18435;SDS011;9346;52.006;4.720;2023-03-08T07:46:01;38.63;;;17.83;;
18435;SDS011;9346;52.006;4.720;2023-03-08T07:48:29;39.57;;;18.77;;
18435;SDS011;9346;52.006;4.720;2023-03-08T07:51:00;32.83;;;17.33;;
18435;SDS011;9346;52.006;4.720;2023-03-08T07:53:30;39.47;;;17.43;;
18435;SDS011;9346;52.006;4.720;2023-03-08T07:55:57;36.97;;;16.67;;
18435;SDS011;9346;52.006;4.720;2023-03-08T07:58:25;33.43;;;18.10;;
18435;SDS011;9346;52.006;4.720;2023-03-08T08:00:52;32.60;;;15.17;;
18435;SDS011;9346;52.006;4.720;2023-03-08T08:03:19;31.57;;;18.37;;
18435;SDS011;9346;52.006;4.720;2023-03-08T08:05:46;35.77;;;16.97;;
18435;SDS011;9346;52.006;4.720;2023-03-08T08:08:15;34.03;;;15.63;;
18435;SDS011;9346;52.006;4.720;2023-03-08T08:10:42;37.50;;;17.63;;
18435;SDS011;9346;52.006;4.720;2023-03-08T08:13:09;43.20;;;17.97;;
18435;SDS011;9346;52.006;4.720;2023-03-08T08:15:36;37.83;;;17.90;;
18435;SDS011;9346;52.006;4.720;2023-03-08T08:18:03;35.00;;;17.13;;
18435;SDS011;9346;52.006;4.720;2023-03-08T08:20:31;35.67;;;17.10;;
18435;SDS011;9346;52.006;4.720;2023-03-08T08:22:57;34.93;;;16.07;;
18435;SDS011;9346;52.006;4.720;2023-03-08T08:25:28;51.57;;;18.27;;
18435;SDS011;9346;52.006;4.720;2023-03-08T08:27:55;36.30;;;16.97;;
18435;SDS011;9346;52.006;4.720;2023-03-08T08:30:22;33.63;;;15.33;;
18435;SDS011;9346;52.006;4.720;2023-03-08T08:32:49;36.63;;;16.07;;
18435;SDS011;9346;52.006;4.720;2023-03-08T08:35:16;30.03;;;14.63;;
18435;SDS011;9346;52.006;4.720;2023-03-08T08:37:43;33.63;;;15.13;;
18435;SDS011;9346;52.006;4.720;2023-03-08T08:40:10;36.67;;;16.40;;
18435;SDS011;9346;52.006;4.720;2023-03-08T08:42:39;35.70;;;14.30;;
18435;SDS011;9346;52.006;4.720;2023-03-08T08:45:06;32.77;;;14.00;;
18435;SDS011;9346;52.006;4.720;2023-03-08T08:47:34;34.27;;;15.27;;
18435;SDS011;9346;52.006;4.720;2023-03-08T08:50:01;35.70;;;14.73;;
18435;SDS011;9346;52.006;4.720;2023-03-08T08:52:28;31.43;;;14.70;;
18435;SDS011;9346;52.006;4.720;2023-03-08T08:54:55;28.80;;;13.80;;
18435;SDS011;9346;52.006;4.720;2023-03-08T08:57:22;30.23;;;14.07;;
18435;SDS011;9346;52.006;4.720;2023-03-08T08:59:50;29.67;;;14.37;;
18435;SDS011;9346;52.006;4.720;2023-03-08T09:02:17;31.40;;;15.57;;
18435;SDS011;9346;52.006;4.720;2023-03-08T09:04:44;31.10;;;14.47;;
18435;SDS011;9346;52.006;4.720;2023-03-08T09:07:11;38.70;;;14.23;;
18435;SDS011;9346;52.006;4.720;2023-03-08T09:09:38;32.43;;;14.03;;
18435;SDS011;9346;52.006;4.720;2023-03-08T09:12:05;24.50;;;12.93;;
18435;SDS011;9346;52.006;4.720;2023-03-08T09:14:33;29.60;;;11.53;;
18435;SDS011;9346;52.006;4.720;2023-03-08T09:17:03;26.50;;;12.10;;
18435;SDS011;9346;52.006;4.720;2023-03-08T09:19:31;26.17;;;11.83;;
18435;SDS011;9346;52.006;4.720;2023-03-08T09:22:00;25.20;;;11.07;;
18435;SDS011;9346;52.006;4.720;2023-03-08T09:24:27;17.73;;;10.00;;
18435;SDS011;9346;52.006;4.720;2023-03-08T09:26:54;29.07;;;12.93;;
18435;SDS011;9346;52.006;4.720;2023-03-08T09:29:21;25.40;;;10.63;;
18435;SDS011;9346;52.006;4.720;2023-03-08T09:31:47;27.00;;;11.93;;
18435;SDS011;9346;52.006;4.720;2023-03-08T09:34:16;23.73;;;11.60;;
18435;SDS011;9346;52.006;4.720;2023-03-08T09:36:43;23.03;;;9.80;;
18435;SDS011;9346;52.006;4.720;2023-03-08T09:39:10;25.03;;;11.53;;
18435;SDS011;9346;52.006;4.720;2023-03-08T09:41:40;25.17;;;10.90;;
18435;SDS011;9346;52.006;4.720;2023-03-08T09:44:33;21.10;;;10.30;;
18435;SDS011;9346;52.006;4.720;2023-03-08T09:47:16;24.80;;;12.07;;
18435;SDS011;9346;52.006;4.720;2023-03-08T09:49:55;19.27;;;9.67;;
18435;SDS011;9346;52.006;4.720;2023-03-08T09:52:27;24.67;;;11.50;;
18435;SDS011;9346;52.006;4.720;2023-03-08T09:54:58;25.43;;;11.67;;
18435;SDS011;9346;52.006;4.720;2023-03-08T09:57:28;20.23;;;9.30;;
18435;SDS011;9346;52.006;4.720;2023-03-08T10:00:00;21.30;;;10.53;;
18435;SDS011;9346;52.006;4.720;2023-03-08T10:02:33;19.60;;;9.30;;
18435;SDS011;9346;52.006;4.720;2023-03-08T10:05:08;18.37;;;9.77;;
18435;SDS011;9346;52.006;4.720;2023-03-08T10:07:47;20.60;;;8.93;;
18435;SDS011;9346;52.006;4.720;2023-03-08T10:10:22;14.70;;;8.60;;
18435;SDS011;9346;52.006;4.720;2023-03-08T10:12:58;18.83;;;8.07;;
18435;SDS011;9346;52.006;4.720;2023-03-08T10:15:46;12.37;;;7.67;;
18435;SDS011;9346;52.006;4.720;2023-03-08T10:18:17;15.80;;;7.97;;
18435;SDS011;9346;52.006;4.720;2023-03-08T10:20:54;14.20;;;7.20;;
18435;SDS011;9346;52.006;4.720;2023-03-08T10:23:23;17.27;;;8.53;;
18435;SDS011;9346;52.006;4.720;2023-03-08T10:25:52;19.53;;;9.10;;
18435;SDS011;9346;52.006;4.720;2023-03-08T10:28:19;15.10;;;7.73;;
18435;SDS011;9346;52.006;4.720;2023-03-08T10:30:49;17.27;;;7.73;;
18435;SDS011;9346;52.006;4.720;2023-03-08T10:33:18;15.83;;;8.13;;
18435;SDS011;9346;52.006;4.720;2023-03-08T10:35:52;15.43;;;8.00;;
18435;SDS011;9346;52.006;4.720;2023-03-08T10:38:22;16.93;;;7.50;;
18435;SDS011;9346;52.006;4.720;2023-03-08T10:40:57;17.20;;;7.10;;
18435;SDS011;9346;52.006;4.720;2023-03-08T10:43:26;14.93;;;8.13;;
18435;SDS011;9346;52.006;4.720;2023-03-08T10:45:59;17.63;;;8.73;;
18435;SDS011;9346;52.006;4.720;2023-03-08T10:48:28;22.70;;;8.87;;
18435;SDS011;9346;52.006;4.720;2023-03-08T10:51:00;19.10;;;9.30;;
18435;SDS011;9346;52.006;4.720;2023-03-08T10:53:29;17.67;;;8.20;;
18435;SDS011;9346;52.006;4.720;2023-03-08T10:55:58;14.47;;;8.30;;
18435;SDS011;9346;52.006;4.720;2023-03-08T10:58:30;17.93;;;8.53;;
18435;SDS011;9346;52.006;4.720;2023-03-08T11:01:01;13.10;;;7.30;;
18435;SDS011;9346;52.006;4.720;2023-03-08T11:03:29;15.57;;;8.17;;
18435;SDS011;9346;52.006;4.720;2023-03-08T11:05:58;18.90;;;8.37;;
18435;SDS011;9346;52.006;4.720;2023-03-08T11:08:29;16.40;;;6.67;;
18435;SDS011;9346;52.006;4.720;2023-03-08T11:11:07;15.97;;;8.77;;
18435;SDS011;9346;52.006;4.720;2023-03-08T11:13:36;16.77;;;8.87;;
18435;SDS011;9346;52.006;4.720;2023-03-08T11:16:15;23.60;;;10.93;;
18435;SDS011;9346;52.006;4.720;2023-03-08T11:18:56;20.40;;;7.73;;
18435;SDS011;9346;52.006;4.720;2023-03-08T11:21:31;13.40;;;7.10;;
18435;SDS011;9346;52.006;4.720;2023-03-08T11:24:06;22.30;;;9.30;;
18435;SDS011;9346;52.006;4.720;2023-03-08T11:26:45;19.00;;;7.57;;
18435;SDS011;9346;52.006;4.720;2023-03-08T11:29:23;20.43;;;7.10;;
18435;SDS011;9346;52.006;4.720;2023-03-08T11:31:59;18.43;;;7.70;;
18435;SDS011;9346;52.006;4.720;2023-03-08T11:34:41;21.10;;;8.70;;
18435;SDS011;9346;52.006;4.720;2023-03-08T11:37:20;16.23;;;8.90;;
18435;SDS011;9346;52.006;4.720;2023-03-08T11:39:59;18.07;;;7.63;;
18435;SDS011;9346;52.006;4.720;2023-03-08T11:42:38;16.97;;;7.43;;
18435;SDS011;9346;52.006;4.720;2023-03-08T11:45:17;18.53;;;7.80;;
18435;SDS011;9346;52.006;4.720;2023-03-08T11:48:02;14.73;;;7.47;;
18435;SDS011;9346;52.006;4.720;2023-03-08T11:50:41;16.10;;;7.93;;
18435;SDS011;9346;52.006;4.720;2023-03-08T11:53:20;13.93;;;7.57;;
18435;SDS011;9346;52.006;4.720;2023-03-08T11:55:58;15.97;;;9.10;;
18435;SDS011;9346;52.006;4.720;2023-03-08T11:58:36;14.77;;;8.27;;
18435;SDS011;9346;52.006;4.720;2023-03-08T12:01:08;25.70;;;9.37;;
18435;SDS011;9346;52.006;4.720;2023-03-08T12:03:42;15.20;;;8.70;;
18435;SDS011;9346;52.006;4.720;2023-03-08T12:06:13;17.13;;;7.97;;
18435;SDS011;9346;52.006;4.720;2023-03-08T12:08:47;19.57;;;8.93;;
18435;SDS011;9346;52.006;4.720;2023-03-08T12:11:21;18.97;;;8.87;;
18435;SDS011;9346;52.006;4.720;2023-03-08T12:13:54;16.00;;;8.03;;
18435;SDS011;9346;52.006;4.720;2023-03-08T12:16:29;20.43;;;9.03;;
18435;SDS011;9346;52.006;4.720;2023-03-08T12:19:02;17.60;;;8.73;;
18435;SDS011;9346;52.006;4.720;2023-03-08T12:21:35;12.80;;;7.77;;
18435;SDS011;9346;52.006;4.720;2023-03-08T12:27:07;17.23;;;7.47;;
18435;SDS011;9346;52.006;4.720;2023-03-08T12:29:39;13.13;;;6.77;;
18435;SDS011;9346;52.006;4.720;2023-03-08T12:32:11;17.80;;;8.37;;
18435;SDS011;9346;52.006;4.720;2023-03-08T12:34:41;19.17;;;7.30;;
18435;SDS011;9346;52.006;4.720;2023-03-08T12:37:19;14.60;;;6.90;;
18435;SDS011;9346;52.006;4.720;2023-03-08T12:39:56;17.70;;;7.70;;
18435;SDS011;9346;52.006;4.720;2023-03-08T12:42:29;14.27;;;7.60;;
18435;SDS011;9346;52.006;4.720;2023-03-08T12:45:08;12.40;;;6.90;;
18435;SDS011;9346;52.006;4.720;2023-03-08T12:47:55;15.47;;;6.80;;
18435;SDS011;9346;52.006;4.720;2023-03-08T12:50:26;12.30;;;6.20;;
18435;SDS011;9346;52.006;4.720;2023-03-08T12:52:53;14.57;;;6.43;;
18435;SDS011;9346;52.006;4.720;2023-03-08T12:55:25;15.10;;;7.37;;
18435;SDS011;9346;52.006;4.720;2023-03-08T12:57:56;15.47;;;7.47;;
18435;SDS011;9346;52.006;4.720;2023-03-08T13:00:26;18.67;;;6.13;;
18435;SDS011;9346;52.006;4.720;2023-03-08T13:02:59;13.10;;;7.03;;
18435;SDS011;9346;52.006;4.720;2023-03-08T13:05:32;11.70;;;6.23;;
18435;SDS011;9346;52.006;4.720;2023-03-08T13:08:16;12.97;;;5.83;;
18435;SDS011;9346;52.006;4.720;2023-03-08T13:10:58;15.77;;;7.77;;
18435;SDS011;9346;52.006;4.720;2023-03-08T13:13:37;10.83;;;5.77;;
18435;SDS011;9346;52.006;4.720;2023-03-08T13:16:17;10.33;;;5.90;;
18435;SDS011;9346;52.006;4.720;2023-03-08T13:18:47;12.53;;;6.40;;
18435;SDS011;9346;52.006;4.720;2023-03-08T13:21:22;14.40;;;6.37;;
18435;SDS011;9346;52.006;4.720;2023-03-08T13:23:55;15.13;;;7.50;;
18435;SDS011;9346;52.006;4.720;2023-03-08T13:29:17;18.47;;;8.83;;
18435;SDS011;9346;52.006;4.720;2023-03-08T13:31:45;19.97;;;8.07;;
18435;SDS011;9346;52.006;4.720;2023-03-08T13:34:27;13.90;;;7.60;;
18435;SDS011;9346;52.006;4.720;2023-03-08T13:36:55;16.73;;;8.37;;
18435;SDS011;9346;52.006;4.720;2023-03-08T13:39:23;15.20;;;7.67;;
18435;SDS011;9346;52.006;4.720;2023-03-08T13:42:03;17.87;;;6.87;;
18435;SDS011;9346;52.006;4.720;2023-03-08T13:44:31;16.60;;;8.33;;
18435;SDS011;9346;52.006;4.720;2023-03-08T13:46:59;17.90;;;7.73;;
18435;SDS011;9346;52.006;4.720;2023-03-08T13:49:28;13.00;;;6.60;;
18435;SDS011;9346;52.006;4.720;2023-03-08T13:51:58;13.77;;;7.33;;
18435;SDS011;9346;52.006;4.720;2023-03-08T13:54:27;14.87;;;7.17;;
18435;SDS011;9346;52.006;4.720;2023-03-08T13:56:58;17.17;;;7.00;;
18435;SDS011;9346;52.006;4.720;2023-03-08T13:59:26;14.63;;;6.50;;
18435;SDS011;9346;52.006;4.720;2023-03-08T14:01:54;15.63;;;6.70;;
18435;SDS011;9346;52.006;4.720;2023-03-08T14:04:22;16.20;;;7.20;;
18435;SDS011;9346;52.006;4.720;2023-03-08T14:06:51;14.57;;;8.17;;
18435;SDS011;9346;52.006;4.720;2023-03-08T14:09:19;19.07;;;7.40;;
18435;SDS011;9346;52.006;4.720;2023-03-08T14:11:52;25.17;;;8.07;;
18435;SDS011;9346;52.006;4.720;2023-03-08T14:14:26;20.83;;;7.27;;
18435;SDS011;9346;52.006;4.720;2023-03-08T14:16:56;19.43;;;7.43;;
18435;SDS011;9346;52.006;4.720;2023-03-08T14:19:25;17.73;;;6.83;;
18435;SDS011;9346;52.006;4.720;2023-03-08T14:21:54;22.90;;;7.87;;
18435;SDS011;9346;52.006;4.720;2023-03-08T14:24:24;16.37;;;7.80;;
18435;SDS011;9346;52.006;4.720;2023-03-08T14:26:54;15.13;;;6.83;;
18435;SDS011;9346;52.006;4.720;2023-03-08T14:29:26;20.87;;;7.40;;
18435;SDS011;9346;52.006;4.720;2023-03-08T14:31:55;20.13;;;6.53;;
18435;SDS011;9346;52.006;4.720;2023-03-08T14:34:31;15.43;;;6.67;;
18435;SDS011;9346;52.006;4.720;2023-03-08T14:37:01;14.47;;;7.27;;
18435;SDS011;9346;52.006;4.720;2023-03-08T14:39:33;17.37;;;8.83;;
18435;SDS011;9346;52.006;4.720;2023-03-08T14:42:08;14.40;;;7.53;;
18435;SDS011;9346;52.006;4.720;2023-03-08T14:44:47;13.20;;;7.40;;
18435;SDS011;9346;52.006;4.720;2023-03-08T14:47:19;14.67;;;6.70;;
18435;SDS011;9346;52.006;4.720;2023-03-08T14:49:53;12.23;;;6.77;;
18435;SDS011;9346;52.006;4.720;2023-03-08T14:52:21;18.67;;;7.37;;
18435;SDS011;9346;52.006;4.720;2023-03-08T14:54:48;18.23;;;7.63;;
18435;SDS011;9346;52.006;4.720;2023-03-08T14:57:16;19.27;;;8.63;;
18435;SDS011;9346;52.006;4.720;2023-03-08T14:59:46;22.30;;;8.67;;
18435;SDS011;9346;52.006;4.720;2023-03-08T15:02:15;20.30;;;8.60;;
18435;SDS011;9346;52.006;4.720;2023-03-08T15:04:43;16.70;;;8.37;;